createdAt,value
2018-09-14T00:00:06.973Z,59.30
2018-09-14T00:02:35.559Z,59.30
2018-09-14T00:05:05.804Z,59.60
2018-09-14T00:07:34.718Z,59.70
2018-09-14T00:10:04.042Z,59.50
2018-09-14T00:12:33.371Z,59.70
2018-09-14T00:15:02.513Z,59.90
2018-09-14T00:17:31.723Z,59.90
2018-09-14T00:20:01.073Z,60.00
2018-09-14T00:22:30.715Z,60.00
2018-09-14T00:24:59.404Z,60.00
2018-09-14T00:27:27.865Z,60.20
2018-09-14T00:29:56.508Z,60.30
2018-09-14T00:32:25.583Z,60.30
2018-09-14T00:34:54.080Z,60.40
2018-09-14T00:37:22.673Z,60.60
2018-09-14T00:39:51.018Z,60.80
2018-09-14T00:42:19.455Z,61.00
2018-09-14T00:44:47.939Z,61.00
2018-09-14T00:47:17.235Z,61.70
2018-09-14T00:49:45.779Z,61.20
2018-09-14T00:52:14.249Z,61.40
2018-09-14T00:54:42.789Z,61.60
2018-09-14T00:57:11.221Z,61.80
2018-09-14T00:59:39.748Z,61.80
2018-09-14T01:02:08.247Z,61.20
2018-09-14T01:04:36.675Z,61.90
2018-09-14T01:07:05.289Z,61.90
2018-09-14T01:09:33.770Z,62.00
2018-09-14T01:12:02.459Z,62.00
2018-09-14T01:14:31.236Z,62.10
2018-09-14T01:16:59.686Z,62.20
2018-09-14T01:19:28.751Z,62.00
2018-09-14T01:21:57.198Z,62.00
2018-09-14T01:24:25.767Z,62.00
2018-09-14T01:26:54.272Z,62.00
2018-09-14T01:29:22.876Z,62.70
2018-09-14T01:31:51.407Z,62.20
2018-09-14T01:34:20.198Z,62.30
2018-09-14T01:36:49.074Z,62.20
2018-09-14T01:39:17.732Z,62.10
2018-09-14T01:41:47.256Z,62.30
2018-09-14T01:44:15.901Z,62.50
2018-09-14T01:46:44.753Z,62.60
2018-09-14T01:49:13.375Z,62.40
2018-09-14T01:51:42.075Z,62.50
2018-09-14T01:54:10.598Z,62.60
2018-09-14T01:56:39.023Z,62.70
2018-09-14T01:59:07.497Z,62.50
2018-09-14T02:01:35.950Z,62.60
2018-09-14T02:04:04.374Z,62.70
2018-09-14T02:06:32.775Z,62.80
2018-09-14T02:09:01.130Z,62.80
2018-09-14T02:11:30.384Z,63.00
2018-09-14T02:15:13.772Z,63.00
2018-09-14T02:17:42.301Z,63.00
2018-09-14T02:20:10.829Z,63.30
2018-09-14T02:22:39.285Z,63.50
2018-09-14T02:25:07.844Z,63.70
2018-09-14T02:27:36.466Z,63.70
2018-09-14T02:30:05.425Z,63.60
2018-09-14T02:32:33.849Z,63.40
2018-09-14T02:35:02.493Z,63.10
2018-09-14T02:37:31.192Z,63.10
2018-09-14T02:39:59.926Z,63.20
2018-09-14T02:42:28.362Z,63.50
2018-09-14T02:44:57.127Z,63.50
2018-09-14T02:47:25.797Z,63.30
2018-09-14T02:49:54.246Z,63.20
2018-09-14T02:52:22.878Z,63.30
2018-09-14T02:54:51.388Z,63.20
2018-09-14T02:57:19.926Z,63.40
2018-09-14T02:59:48.380Z,63.10
2018-09-14T03:02:16.970Z,63.10
2018-09-14T03:04:46.006Z,63.20
2018-09-14T03:07:16.088Z,63.10
2018-09-14T03:09:45.389Z,63.20
2018-09-14T03:12:14.319Z,63.30
2018-09-14T03:14:43.789Z,63.30
2018-09-14T03:17:12.252Z,63.30
2018-09-14T03:19:40.768Z,63.20
2018-09-14T03:22:09.156Z,63.10
2018-09-14T03:24:37.797Z,63.30
2018-09-14T03:27:06.669Z,63.40
2018-09-14T03:29:35.090Z,63.30
2018-09-14T03:32:03.584Z,63.40
2018-09-14T03:34:31.988Z,63.40
2018-09-14T03:37:00.335Z,63.30
2018-09-14T03:39:29.313Z,63.50
2018-09-14T03:41:57.873Z,63.50
2018-09-14T03:44:26.354Z,63.50
2018-09-14T03:46:55.005Z,63.40
2018-09-14T03:49:23.475Z,63.50
2018-09-14T03:51:52.220Z,63.50
2018-09-14T03:54:21.107Z,63.30
2018-09-14T03:56:49.460Z,63.70
2018-09-14T03:59:17.968Z,63.90
2018-09-14T04:01:46.352Z,63.80
2018-09-14T04:04:14.769Z,63.50
2018-09-14T04:06:43.393Z,63.30
2018-09-14T04:09:12.736Z,63.60
2018-09-14T04:11:41.258Z,63.60
2018-09-14T04:14:10.141Z,63.70
2018-09-14T04:16:38.946Z,63.60
2018-09-14T04:19:07.475Z,63.20
2018-09-14T04:21:37.228Z,63.00
2018-09-14T04:24:05.963Z,62.70
2018-09-14T04:26:35.176Z,62.40
2018-09-14T04:29:03.713Z,62.50
2018-09-14T04:31:32.362Z,62.40
2018-09-14T04:34:01.050Z,62.60
2018-09-14T04:36:29.738Z,62.70
2018-09-14T04:38:58.603Z,62.50
2018-09-14T04:41:27.548Z,62.50
2018-09-14T04:43:56.082Z,62.50
2018-09-14T04:46:24.708Z,62.40
2018-09-14T04:48:53.111Z,62.40
2018-09-14T04:51:21.643Z,62.40
2018-09-14T04:53:50.365Z,62.20
2018-09-14T04:56:19.167Z,62.20
2018-09-14T04:58:48.219Z,62.40
2018-09-14T05:01:17.010Z,62.20
2018-09-14T05:03:45.700Z,62.30
2018-09-14T05:06:14.270Z,62.30
2018-09-14T05:08:42.830Z,62.40
2018-09-14T05:11:11.494Z,62.40
2018-09-14T05:13:39.981Z,62.50
2018-09-14T05:16:08.519Z,62.40
2018-09-14T05:18:37.222Z,62.50
2018-09-14T05:21:06.034Z,62.50
2018-09-14T05:23:34.639Z,62.60
2018-09-14T05:26:03.047Z,62.60
2018-09-14T05:28:31.623Z,62.60
2018-09-14T05:31:00.191Z,62.60
2018-09-14T05:33:28.576Z,62.70
2018-09-14T05:35:57.188Z,62.70
2018-09-14T05:38:25.631Z,62.80
2018-09-14T05:40:54.265Z,63.00
2018-09-14T05:43:22.938Z,63.00
2018-09-14T05:45:51.492Z,63.20
2018-09-14T05:48:19.935Z,63.30
2018-09-14T05:50:48.605Z,63.40
2018-09-14T05:53:17.162Z,63.50
2018-09-14T05:55:45.615Z,63.40
2018-09-14T05:58:14.248Z,62.70
2018-09-14T06:00:42.766Z,63.00
2018-09-14T06:03:11.377Z,63.20
2018-09-14T06:05:40.071Z,63.20
2018-09-14T06:08:08.426Z,63.30
2018-09-14T06:10:37.187Z,63.50
2018-09-14T06:13:06.126Z,63.60
2018-09-14T06:15:34.588Z,63.70
2018-09-14T06:18:03.896Z,64.00
2018-09-14T06:20:32.552Z,64.00
2018-09-14T06:23:00.994Z,64.20
2018-09-14T06:25:29.535Z,64.50
2018-09-14T06:27:58.065Z,64.60
2018-09-14T06:30:26.649Z,64.50
2018-09-14T06:32:55.046Z,64.40
2018-09-14T06:35:23.627Z,64.40
2018-09-14T06:37:52.036Z,64.40
2018-09-14T06:40:20.440Z,64.80
2018-09-14T06:42:48.882Z,65.00
2018-09-14T06:45:17.355Z,65.10
2018-09-14T06:47:45.725Z,65.00
2018-09-14T06:50:14.306Z,65.20
2018-09-14T06:52:42.904Z,65.20
2018-09-14T06:55:11.380Z,65.30
2018-09-14T06:57:39.827Z,65.70
2018-09-14T07:00:08.516Z,65.70
2018-09-14T07:02:36.970Z,65.80
2018-09-14T07:05:05.506Z,66.00
2018-09-14T07:07:33.888Z,65.80
2018-09-14T07:10:02.280Z,66.10
2018-09-14T07:12:31.354Z,65.90
2018-09-14T07:15:00.096Z,65.90
2018-09-14T07:17:29.232Z,65.80
2018-09-14T07:19:57.814Z,65.60
2018-09-14T07:22:26.308Z,66.00
2018-09-14T07:24:54.831Z,66.30
2018-09-14T07:27:23.292Z,66.20
2018-09-14T07:29:51.962Z,66.40
2018-09-14T07:32:20.498Z,66.40
2018-09-14T07:34:49.124Z,66.50
2018-09-14T07:37:17.585Z,66.60
2018-09-14T07:39:46.231Z,66.50
2018-09-14T07:42:14.821Z,66.40
2018-09-14T07:44:43.235Z,65.90
2018-09-14T07:47:11.663Z,65.60
2018-09-14T07:49:40.119Z,65.80
2018-09-14T07:52:08.702Z,66.10
2018-09-14T07:54:37.299Z,65.90
2018-09-14T07:57:06.816Z,65.90
2018-09-14T07:59:35.369Z,66.30
2018-09-14T08:02:04.315Z,66.50
2018-09-14T08:04:33.137Z,65.80
2018-09-14T08:07:01.889Z,65.70
2018-09-14T08:09:30.472Z,65.50
2018-09-14T08:11:59.215Z,65.60
2018-09-14T08:14:27.562Z,65.90
2018-09-14T08:16:56.044Z,66.00
2018-09-14T08:19:24.888Z,65.90
2018-09-14T08:21:53.573Z,65.90
2018-09-14T08:24:22.150Z,66.00
2018-09-14T08:26:50.688Z,65.50
2018-09-14T08:29:19.057Z,65.70
2018-09-14T08:31:47.576Z,65.30
2018-09-14T08:34:16.144Z,65.30
2018-09-14T08:36:45.223Z,65.30
2018-09-14T08:39:13.837Z,65.30
2018-09-14T08:41:42.492Z,64.60
2018-09-14T08:44:11.127Z,65.00
2018-09-14T08:46:39.977Z,64.60
2018-09-14T08:49:09.033Z,65.10
2018-09-14T08:51:37.540Z,64.30
2018-09-14T08:54:06.038Z,63.70
2018-09-14T08:56:34.810Z,63.70
2018-09-14T08:59:04.069Z,64.00
2018-09-14T09:01:33.045Z,63.20
2018-09-14T09:04:01.528Z,63.20
2018-09-14T09:06:29.925Z,63.70
2018-09-14T09:08:58.582Z,63.20
2018-09-14T09:11:27.320Z,62.50
2018-09-14T09:13:55.771Z,62.90
2018-09-14T09:16:24.172Z,63.10
2018-09-14T09:18:52.615Z,62.40
2018-09-14T09:21:21.020Z,62.60
2018-09-14T09:23:49.667Z,63.10
2018-09-14T09:26:18.131Z,63.00
2018-09-14T09:28:46.460Z,62.60
2018-09-14T09:31:14.867Z,62.70
2018-09-14T09:33:43.291Z,61.90
2018-09-14T09:36:11.786Z,62.10
2018-09-14T09:38:40.195Z,61.10
2018-09-14T09:41:08.595Z,61.80
2018-09-14T09:43:37.059Z,61.50
2018-09-14T09:46:05.942Z,61.30
2018-09-14T09:48:34.311Z,60.40
2018-09-14T09:51:03.597Z,60.60
2018-09-14T09:53:32.227Z,61.40
2018-09-14T09:56:01.208Z,60.20
2018-09-14T09:58:29.638Z,59.80
2018-09-14T10:01:03.263Z,59.50
2018-09-14T10:04:34.994Z,58.80
2018-09-14T10:07:03.656Z,59.20
2018-09-14T10:09:32.066Z,58.60
2018-09-14T10:12:00.586Z,58.50
2018-09-14T10:14:29.205Z,58.40
2018-09-14T10:16:57.588Z,56.90
2018-09-14T10:19:26.028Z,56.20
2018-09-14T10:21:54.403Z,56.10
2018-09-14T10:24:22.788Z,55.20
2018-09-14T10:26:51.473Z,55.20
2018-09-14T10:29:19.919Z,55.50
2018-09-14T10:31:48.279Z,54.10
2018-09-14T10:34:16.678Z,53.00
2018-09-14T10:36:45.292Z,53.30
2018-09-14T10:39:13.664Z,53.80
2018-09-14T10:41:42.191Z,53.60
2018-09-14T10:44:10.582Z,54.00
2018-09-14T10:46:39.106Z,53.40
2018-09-14T10:49:08.271Z,53.40
2018-09-14T10:51:37.764Z,53.10
2018-09-14T10:54:07.410Z,52.10
2018-09-14T10:56:37.135Z,50.90
2018-09-14T10:59:06.518Z,47.90
2018-09-14T11:01:35.597Z,45.40
2018-09-14T11:04:04.673Z,45.60
2018-09-14T11:06:33.685Z,44.60
2018-09-14T11:09:03.091Z,44.60
2018-09-14T11:11:32.290Z,45.30
2018-09-14T11:14:01.711Z,44.30
2018-09-14T11:16:30.872Z,44.90
2018-09-14T11:19:00.419Z,44.50
2018-09-14T11:21:29.568Z,44.10
2018-09-14T11:24:00.712Z,42.90
2018-09-14T11:26:29.519Z,42.90
2018-09-14T11:28:58.228Z,43.30
2018-09-14T11:31:27.063Z,42.80
2018-09-14T11:33:56.551Z,42.50
2018-09-14T11:36:25.461Z,41.90
2018-09-14T11:38:54.207Z,41.70
2018-09-14T11:41:22.675Z,42.90
2018-09-14T11:43:51.407Z,42.70
2018-09-14T11:46:20.978Z,42.00
2018-09-14T11:48:50.023Z,42.90
2018-09-14T11:51:18.721Z,41.10
2018-09-14T11:53:47.230Z,41.20
2018-09-14T11:56:15.628Z,40.60
2018-09-14T11:58:44.089Z,40.50
2018-09-14T12:01:12.450Z,41.00
2018-09-14T12:03:40.852Z,39.80
2018-09-14T12:06:09.202Z,40.20
2018-09-14T12:08:37.606Z,40.10
2018-09-14T12:11:06.215Z,40.00
2018-09-14T12:13:35.207Z,39.90
2018-09-14T12:16:03.778Z,39.90
2018-09-14T12:18:32.299Z,39.30
2018-09-14T12:21:00.843Z,38.60
2018-09-14T12:23:29.306Z,38.60
2018-09-14T12:25:57.850Z,37.80
2018-09-14T12:28:26.738Z,38.20
2018-09-14T12:30:55.189Z,38.40
2018-09-14T12:33:23.649Z,37.50
2018-09-14T12:35:52.100Z,39.60
2018-09-14T12:38:20.527Z,39.30
2018-09-14T12:40:49.121Z,37.30
2018-09-14T12:43:17.809Z,37.30
2018-09-14T12:45:46.549Z,37.70
2018-09-14T12:48:15.108Z,37.50
2018-09-14T12:50:43.778Z,38.00
2018-09-14T12:53:12.330Z,37.70
2018-09-14T12:55:40.725Z,37.40
2018-09-14T12:58:09.405Z,37.60
2018-09-14T13:00:38.077Z,38.30
2018-09-14T13:03:06.803Z,37.20
2018-09-14T13:05:35.323Z,37.30
2018-09-14T13:08:03.860Z,38.20
2018-09-14T13:10:32.260Z,38.10
2018-09-14T13:13:00.915Z,39.70
2018-09-14T13:15:29.776Z,38.70
2018-09-14T13:17:58.434Z,39.20
2018-09-14T13:20:27.791Z,38.60
2018-09-14T13:22:57.227Z,40.20
2018-09-14T13:25:26.657Z,39.80
2018-09-14T13:27:55.798Z,38.30
2018-09-14T13:30:24.779Z,37.60
2018-09-14T13:32:54.200Z,37.40
2018-09-14T13:35:24.561Z,37.10
2018-09-14T13:37:54.396Z,37.30
2018-09-14T13:40:23.458Z,37.30
2018-09-14T13:42:52.720Z,37.90
2018-09-14T13:45:22.430Z,36.90
2018-09-14T13:47:51.445Z,37.30
2018-09-14T13:50:21.322Z,36.90
2018-09-14T13:52:50.307Z,38.20
2018-09-14T13:55:19.908Z,35.30
2018-09-14T13:57:49.114Z,35.60
2018-09-14T14:00:18.189Z,34.50
2018-09-14T14:02:47.089Z,35.50
2018-09-14T14:05:16.257Z,35.20
2018-09-14T14:07:45.943Z,34.40
2018-09-14T14:10:15.372Z,35.10
2018-09-14T14:12:43.776Z,34.40
2018-09-14T14:15:12.453Z,34.20
2018-09-14T14:17:41.106Z,35.00
2018-09-14T14:20:10.235Z,35.40
2018-09-14T14:22:40.959Z,35.80
2018-09-14T14:25:10.410Z,35.50
2018-09-14T14:27:40.128Z,35.00
2018-09-14T14:30:09.341Z,35.30
2018-09-14T14:32:38.266Z,35.00
2018-09-14T14:35:06.942Z,35.30
2018-09-14T14:37:35.514Z,34.40
2018-09-14T14:40:04.522Z,34.20
2018-09-14T14:42:32.987Z,33.40
2018-09-14T14:45:02.020Z,33.70
2018-09-14T14:47:32.006Z,33.80
2018-09-14T14:50:01.361Z,34.40
2018-09-14T14:52:29.707Z,34.00
2018-09-14T14:54:59.206Z,34.00
2018-09-14T14:57:27.690Z,33.10
2018-09-14T14:59:56.158Z,33.40
2018-09-14T15:02:24.568Z,34.00
2018-09-14T15:04:52.938Z,33.30
2018-09-14T15:07:21.560Z,33.90
2018-09-14T15:09:49.984Z,33.50
2018-09-14T15:12:18.451Z,34.30
2018-09-14T15:14:46.845Z,33.50
2018-09-14T15:17:15.188Z,33.60
2018-09-14T15:19:43.601Z,32.90
2018-09-14T15:22:12.052Z,33.20
2018-09-14T15:24:40.480Z,34.00
2018-09-14T15:27:08.854Z,34.20
2018-09-14T15:29:37.735Z,34.50
2018-09-14T15:32:06.998Z,35.30
2018-09-14T15:34:36.483Z,35.50
2018-09-14T15:37:06.633Z,35.30
2018-09-14T15:39:35.943Z,34.70
2018-09-14T15:42:06.287Z,34.50
2018-09-14T15:44:35.936Z,34.80
2018-09-14T15:47:06.015Z,35.00
2018-09-14T15:49:35.074Z,35.30
2018-09-14T15:52:04.128Z,35.50
2018-09-14T15:54:32.899Z,35.90
2018-09-14T15:57:01.890Z,35.90
2018-09-14T15:59:30.894Z,36.00
2018-09-14T16:02:00.640Z,35.70
2018-09-14T16:04:29.354Z,36.40
2018-09-14T16:06:57.863Z,36.60
2018-09-14T16:09:26.443Z,36.00
2018-09-14T16:11:55.239Z,36.70
2018-09-14T16:14:23.902Z,36.20
2018-09-14T16:16:52.302Z,36.10
2018-09-14T16:19:23.213Z,36.40
2018-09-14T16:21:52.840Z,37.10
2018-09-14T16:24:22.229Z,37.00
2018-09-14T16:26:51.307Z,37.10
2018-09-14T16:29:21.123Z,37.30
2018-09-14T16:31:49.522Z,37.10
2018-09-14T16:34:17.965Z,37.50
2018-09-14T16:36:46.539Z,37.70
2018-09-14T16:39:14.983Z,37.10
2018-09-14T16:41:43.405Z,37.20
2018-09-14T16:44:11.898Z,37.40
2018-09-14T16:46:40.309Z,37.40
2018-09-14T16:49:09.201Z,37.50
2018-09-14T16:51:37.661Z,36.90
2018-09-14T16:54:06.007Z,37.50
2018-09-14T16:56:34.693Z,37.90
2018-09-14T16:59:03.160Z,37.30
2018-09-14T17:01:31.650Z,35.60
2018-09-14T17:04:00.091Z,35.20
2018-09-14T17:06:28.425Z,35.00
2018-09-14T17:08:56.868Z,34.00
2018-09-14T17:11:25.368Z,34.00
2018-09-14T17:13:53.801Z,34.50
2018-09-14T17:16:22.449Z,35.20
2018-09-14T17:18:50.846Z,34.70
2018-09-14T17:21:19.229Z,34.70
2018-09-14T17:23:47.601Z,34.70
2018-09-14T17:26:16.111Z,35.20
2018-09-14T17:28:44.575Z,35.40
2018-09-14T17:31:13.055Z,35.10
2018-09-14T17:33:41.679Z,35.10
2018-09-14T17:36:10.117Z,35.30
2018-09-14T17:38:38.556Z,35.60
2018-09-14T17:41:06.986Z,35.70
2018-09-14T17:43:35.373Z,35.80
2018-09-14T17:46:03.756Z,36.20
2018-09-14T17:48:33.993Z,36.50
2018-09-14T17:51:04.173Z,37.00
2018-09-14T17:53:34.323Z,36.70
2018-09-14T17:56:04.431Z,36.60
2018-09-14T17:58:34.415Z,37.00
2018-09-14T18:01:04.740Z,37.40
2018-09-14T18:03:35.516Z,37.10
2018-09-14T18:06:06.738Z,37.40
2018-09-14T18:08:35.118Z,37.60
2018-09-14T18:11:03.515Z,37.40
2018-09-14T18:13:31.932Z,37.50
2018-09-14T18:16:00.334Z,37.90
2018-09-14T18:18:29.940Z,38.10
2018-09-14T18:20:58.385Z,38.20
2018-09-14T18:23:26.830Z,38.70
2018-09-14T18:25:55.345Z,39.30
2018-09-14T18:28:23.897Z,40.80
2018-09-14T18:30:52.285Z,40.80
2018-09-14T18:33:20.656Z,41.90
2018-09-14T18:35:49.112Z,41.80
2018-09-14T18:38:17.423Z,42.40
2018-09-14T18:40:45.795Z,42.00
2018-09-14T18:43:14.684Z,42.00
2018-09-14T18:45:43.107Z,41.30
2018-09-14T18:48:12.436Z,41.80
2018-09-14T18:50:40.869Z,42.70
2018-09-14T18:53:09.368Z,42.70
2018-09-14T18:55:38.034Z,42.90
2018-09-14T18:58:06.556Z,42.80
2018-09-14T19:00:35.088Z,43.20
2018-09-14T19:03:03.585Z,43.50
2018-09-14T19:05:32.399Z,42.70
2018-09-14T19:08:01.008Z,42.50
2018-09-14T19:10:29.527Z,42.70
2018-09-14T19:12:57.980Z,42.80
2018-09-14T19:15:26.428Z,42.50
2018-09-14T19:17:55.151Z,42.50
2018-09-14T19:20:23.687Z,42.50
2018-09-14T19:22:52.307Z,43.90
2018-09-14T19:25:20.819Z,44.70
2018-09-14T19:27:49.509Z,44.40
2018-09-14T19:30:18.074Z,44.20
2018-09-14T19:32:46.769Z,44.80
2018-09-14T19:35:15.233Z,44.60
2018-09-14T19:37:44.234Z,43.80
2018-09-14T19:40:13.005Z,44.00
2018-09-14T19:42:41.886Z,43.50
2018-09-14T19:45:10.661Z,43.80
2018-09-14T19:47:39.368Z,43.50
2018-09-14T19:50:08.032Z,43.00
2018-09-14T19:52:37.330Z,43.70
2018-09-14T19:55:06.049Z,44.10
2018-09-14T19:57:34.656Z,44.10
2018-09-14T20:00:03.476Z,44.20
2018-09-14T20:02:31.903Z,43.90
2018-09-14T20:05:00.478Z,44.20
2018-09-14T20:07:29.026Z,44.50
2018-09-14T20:09:57.916Z,44.40
2018-09-14T20:12:26.759Z,45.20
2018-09-14T20:16:09.743Z,46.10
2018-09-14T20:18:39.314Z,46.90
2018-09-14T20:21:07.872Z,46.30
2018-09-14T20:23:36.916Z,46.90
2018-09-14T20:26:05.583Z,46.30
2018-09-14T20:28:35.360Z,46.10
2018-09-14T20:31:04.228Z,46.20
2018-09-14T20:33:32.863Z,46.30
2018-09-14T20:36:01.375Z,46.70
2018-09-14T20:38:30.109Z,46.20
2018-09-14T20:40:58.498Z,46.40
2018-09-14T20:43:27.146Z,46.90
2018-09-14T20:45:55.747Z,47.00
2018-09-14T20:48:24.284Z,47.30
2018-09-14T20:50:52.830Z,47.30
2018-09-14T20:53:21.240Z,47.90
2018-09-14T20:55:49.727Z,48.00
2018-09-14T20:58:19.245Z,47.70
2018-09-14T21:00:47.776Z,47.30
2018-09-14T21:03:16.453Z,47.30
2018-09-14T21:05:44.937Z,47.40
2018-09-14T21:08:13.955Z,47.50
2018-09-14T21:10:42.509Z,47.70
2018-09-14T21:13:11.554Z,47.70
2018-09-14T21:15:39.950Z,47.90
2018-09-14T21:18:08.701Z,48.10
2018-09-14T21:20:37.788Z,48.30
2018-09-14T21:23:06.297Z,48.70
2018-09-14T21:25:34.700Z,48.90
2018-09-14T21:28:03.512Z,48.90
2018-09-14T21:30:32.402Z,49.10
2018-09-14T21:33:00.927Z,49.20
2018-09-14T21:35:29.376Z,49.30
2018-09-14T21:37:57.750Z,49.50
2018-09-14T21:40:26.779Z,49.50
2018-09-14T21:42:55.177Z,49.40
2018-09-14T21:45:23.535Z,49.60
2018-09-14T21:47:52.074Z,49.80
2018-09-14T21:50:20.462Z,49.80
2018-09-14T21:52:48.955Z,49.90
2018-09-14T21:55:17.360Z,50.00
2018-09-14T21:57:45.817Z,50.00
2018-09-14T22:00:19.509Z,49.80
2018-09-14T22:02:47.921Z,50.10
2018-09-14T22:05:16.315Z,50.20
2018-09-14T22:07:44.763Z,50.30
2018-09-14T22:10:13.308Z,50.70
2018-09-14T22:12:41.727Z,50.70
2018-09-14T22:15:10.270Z,50.90
2018-09-14T22:17:38.636Z,50.80
2018-09-14T22:20:07.251Z,51.00
2018-09-14T22:22:35.748Z,51.00
2018-09-14T22:25:04.247Z,51.10
2018-09-14T22:27:32.918Z,50.90
2018-09-14T22:30:01.456Z,50.70
2018-09-14T22:32:29.884Z,50.50
2018-09-14T22:34:58.617Z,50.70
2018-09-14T22:37:27.132Z,50.70
2018-09-14T22:39:55.643Z,50.60
2018-09-14T22:42:24.062Z,50.40
2018-09-14T22:44:52.400Z,50.50
2018-09-14T22:47:20.829Z,50.60
2018-09-14T22:49:49.208Z,51.10
2018-09-14T22:52:17.611Z,50.70
2018-09-14T22:54:45.979Z,50.80
2018-09-14T22:57:14.522Z,50.90
2018-09-14T22:59:43.023Z,51.10
2018-09-14T23:02:11.493Z,51.30
2018-09-14T23:04:39.825Z,51.50
2018-09-14T23:07:08.291Z,51.50
2018-09-14T23:09:36.723Z,51.40
2018-09-14T23:12:05.323Z,51.60
2018-09-14T23:14:33.699Z,51.70
2018-09-14T23:17:02.101Z,51.80
2018-09-14T23:19:30.443Z,51.80
2018-09-14T23:21:58.974Z,51.90
2018-09-14T23:24:28.813Z,52.00
2018-09-14T23:26:58.381Z,52.10
2018-09-14T23:29:27.470Z,52.10
2018-09-14T23:31:57.388Z,52.20
2018-09-14T23:34:26.966Z,52.20
2018-09-14T23:36:56.683Z,52.30
2018-09-14T23:39:26.286Z,52.30
2018-09-14T23:41:56.306Z,52.40
2018-09-14T23:44:26.940Z,52.70
2018-09-14T23:46:56.105Z,52.70
2018-09-14T23:49:25.603Z,52.90
2018-09-14T23:51:55.759Z,53.00
2018-09-14T23:54:24.666Z,53.00
2018-09-14T23:56:53.376Z,53.10
2018-09-14T23:59:23.254Z,53.20
